sensor_id;sensor_type;location;lat;lon;timestamp;P1;durP1;ratioP1;P2;durP2;ratioP2
76284;SDS011;71676;50.998;7.098;2024-02-21T00:02:19;10.85;;;3.03;;
76284;SDS011;71676;50.998;7.098;2024-02-21T00:04:47;12.50;;;4.03;;
76284;SDS011;71676;50.998;7.098;2024-02-21T00:07:13;9.45;;;3.22;;
76284;SDS011;71676;50.998;7.098;2024-02-21T00:09:40;9.70;;;3.42;;
76284;SDS011;71676;50.998;7.098;2024-02-21T00:12:07;9.45;;;3.28;;
76284;SDS011;71676;50.998;7.098;2024-02-21T00:14:34;10.00;;;3.22;;
76284;SDS011;71676;50.998;7.098;2024-02-21T00:17:00;10.32;;;3.28;;
76284;SDS011;71676;50.998;7.098;2024-02-21T00:19:27;8.13;;;3.17;;
76284;SDS011;71676;50.998;7.098;2024-02-21T00:21:55;10.85;;;2.97;;
76284;SDS011;71676;50.998;7.098;2024-02-21T00:24:21;11.68;;;2.88;;
76284;SDS011;71676;50.998;7.098;2024-02-21T00:26:48;10.77;;;3.30;;
76284;SDS011;71676;50.998;7.098;2024-02-21T00:29:15;10.05;;;3.30;;
76284;SDS011;71676;50.998;7.098;2024-02-21T00:31:41;15.23;;;4.53;;
76284;SDS011;71676;50.998;7.098;2024-02-21T00:34:09;11.35;;;3.15;;
76284;SDS011;71676;50.998;7.098;2024-02-21T00:36:37;11.30;;;3.75;;
76284;SDS011;71676;50.998;7.098;2024-02-21T00:39:05;12.40;;;3.42;;
76284;SDS011;71676;50.998;7.098;2024-02-21T00:41:32;13.65;;;3.63;;
76284;SDS011;71676;50.998;7.098;2024-02-21T00:43:59;11.60;;;3.95;;
76284;SDS011;71676;50.998;7.098;2024-02-21T00:46:26;11.18;;;3.45;;
76284;SDS011;71676;50.998;7.098;2024-02-21T00:48:52;13.23;;;3.92;;
76284;SDS011;71676;50.998;7.098;2024-02-21T00:51:19;9.90;;;3.80;;
76284;SDS011;71676;50.998;7.098;2024-02-21T00:53:46;10.07;;;3.20;;
76284;SDS011;71676;50.998;7.098;2024-02-21T00:56:14;10.73;;;3.42;;
76284;SDS011;71676;50.998;7.098;2024-02-21T00:58:40;9.90;;;3.15;;
76284;SDS011;71676;50.998;7.098;2024-02-21T01:01:07;10.93;;;3.45;;
76284;SDS011;71676;50.998;7.098;2024-02-21T01:03:33;12.38;;;3.40;;
76284;SDS011;71676;50.998;7.098;2024-02-21T01:06:00;10.65;;;3.35;;
76284;SDS011;71676;50.998;7.098;2024-02-21T01:08:27;13.18;;;3.65;;
76284;SDS011;71676;50.998;7.098;2024-02-21T01:10:53;14.15;;;4.10;;
76284;SDS011;71676;50.998;7.098;2024-02-21T01:13:21;10.88;;;3.60;;
76284;SDS011;71676;50.998;7.098;2024-02-21T01:15:48;10.00;;;3.10;;
76284;SDS011;71676;50.998;7.098;2024-02-21T01:18:14;10.30;;;3.63;;
76284;SDS011;71676;50.998;7.098;2024-02-21T01:20:41;8.55;;;3.17;;
76284;SDS011;71676;50.998;7.098;2024-02-21T01:23:08;10.90;;;3.50;;
76284;SDS011;71676;50.998;7.098;2024-02-21T01:25:34;11.07;;;4.07;;
76284;SDS011;71676;50.998;7.098;2024-02-21T01:28:01;14.68;;;4.32;;
76284;SDS011;71676;50.998;7.098;2024-02-21T01:30:29;10.65;;;3.55;;
76284;SDS011;71676;50.998;7.098;2024-02-21T01:32:55;11.55;;;3.40;;
76284;SDS011;71676;50.998;7.098;2024-02-21T01:35:22;11.57;;;3.45;;
76284;SDS011;71676;50.998;7.098;2024-02-21T01:37:49;13.68;;;4.07;;
76284;SDS011;71676;50.998;7.098;2024-02-21T01:40:16;14.25;;;3.47;;
76284;SDS011;71676;50.998;7.098;2024-02-21T01:42:43;13.13;;;3.70;;
76284;SDS011;71676;50.998;7.098;2024-02-21T01:45:10;13.27;;;4.00;;
76284;SDS011;71676;50.998;7.098;2024-02-21T01:47:38;11.45;;;3.97;;
76284;SDS011;71676;50.998;7.098;2024-02-21T01:50:05;10.25;;;3.63;;
76284;SDS011;71676;50.998;7.098;2024-02-21T01:52:33;11.70;;;4.20;;
76284;SDS011;71676;50.998;7.098;2024-02-21T01:55:01;9.68;;;3.72;;
76284;SDS011;71676;50.998;7.098;2024-02-21T01:57:28;11.82;;;3.67;;
76284;SDS011;71676;50.998;7.098;2024-02-21T01:59:58;14.90;;;4.10;;
76284;SDS011;71676;50.998;7.098;2024-02-21T02:02:25;9.93;;;3.90;;
76284;SDS011;71676;50.998;7.098;2024-02-21T02:04:53;12.80;;;4.10;;
76284;SDS011;71676;50.998;7.098;2024-02-21T02:07:20;13.02;;;3.80;;
76284;SDS011;71676;50.998;7.098;2024-02-21T02:09:47;13.77;;;4.50;;
76284;SDS011;71676;50.998;7.098;2024-02-21T02:12:14;13.45;;;4.22;;
76284;SDS011;71676;50.998;7.098;2024-02-21T02:14:41;11.43;;;3.95;;
76284;SDS011;71676;50.998;7.098;2024-02-21T02:17:07;13.13;;;4.30;;
76284;SDS011;71676;50.998;7.098;2024-02-21T02:19:35;12.80;;;4.18;;
76284;SDS011;71676;50.998;7.098;2024-02-21T02:22:05;10.73;;;4.13;;
76284;SDS011;71676;50.998;7.098;2024-02-21T02:24:36;12.07;;;4.55;;
76284;SDS011;71676;50.998;7.098;2024-02-21T02:27:03;12.25;;;4.22;;
76284;SDS011;71676;50.998;7.098;2024-02-21T02:29:31;12.63;;;3.70;;
76284;SDS011;71676;50.998;7.098;2024-02-21T02:31:58;12.65;;;4.20;;
76284;SDS011;71676;50.998;7.098;2024-02-21T02:34:25;8.02;;;4.20;;
76284;SDS011;71676;50.998;7.098;2024-02-21T02:36:51;14.02;;;4.10;;
76284;SDS011;71676;50.998;7.098;2024-02-21T02:39:19;12.82;;;4.38;;
76284;SDS011;71676;50.998;7.098;2024-02-21T02:41:47;14.90;;;5.45;;
76284;SDS011;71676;50.998;7.098;2024-02-21T02:44:14;9.95;;;3.65;;
76284;SDS011;71676;50.998;7.098;2024-02-21T02:46:41;10.50;;;3.53;;
76284;SDS011;71676;50.998;7.098;2024-02-21T02:49:07;11.30;;;3.67;;
76284;SDS011;71676;50.998;7.098;2024-02-21T02:51:34;11.73;;;4.15;;
76284;SDS011;71676;50.998;7.098;2024-02-21T02:54:02;14.40;;;4.40;;
76284;SDS011;71676;50.998;7.098;2024-02-21T02:56:29;11.10;;;4.18;;
76284;SDS011;71676;50.998;7.098;2024-02-21T02:58:57;16.35;;;3.70;;
76284;SDS011;71676;50.998;7.098;2024-02-21T03:01:23;10.85;;;3.38;;
76284;SDS011;71676;50.998;7.098;2024-02-21T03:03:50;9.05;;;3.10;;
76284;SDS011;71676;50.998;7.098;2024-02-21T03:06:16;7.28;;;3.22;;
76284;SDS011;71676;50.998;7.098;2024-02-21T03:08:43;11.75;;;4.72;;
76284;SDS011;71676;50.998;7.098;2024-02-21T03:11:10;9.50;;;3.35;;
76284;SDS011;71676;50.998;7.098;2024-02-21T03:13:37;12.05;;;3.25;;
76284;SDS011;71676;50.998;7.098;2024-02-21T03:16:05;11.40;;;3.80;;
76284;SDS011;71676;50.998;7.098;2024-02-21T03:18:32;8.73;;;3.15;;
76284;SDS011;71676;50.998;7.098;2024-02-21T03:20:58;10.65;;;3.15;;
76284;SDS011;71676;50.998;7.098;2024-02-21T03:23:25;9.95;;;3.58;;
76284;SDS011;71676;50.998;7.098;2024-02-21T03:25:52;12.38;;;3.72;;
76284;SDS011;71676;50.998;7.098;2024-02-21T03:28:18;11.27;;;3.95;;
76284;SDS011;71676;50.998;7.098;2024-02-21T03:30:45;10.60;;;3.45;;
76284;SDS011;71676;50.998;7.098;2024-02-21T03:33:13;11.30;;;3.70;;
76284;SDS011;71676;50.998;7.098;2024-02-21T03:35:39;11.45;;;3.50;;
76284;SDS011;71676;50.998;7.098;2024-02-21T03:38:06;14.23;;;3.90;;
76284;SDS011;71676;50.998;7.098;2024-02-21T03:40:32;11.93;;;3.78;;
76284;SDS011;71676;50.998;7.098;2024-02-21T03:42:59;11.80;;;3.70;;
76284;SDS011;71676;50.998;7.098;2024-02-21T03:45:26;10.02;;;3.55;;
76284;SDS011;71676;50.998;7.098;2024-02-21T03:47:52;11.45;;;3.60;;
76284;SDS011;71676;50.998;7.098;2024-02-21T03:50:20;12.38;;;4.15;;
76284;SDS011;71676;50.998;7.098;2024-02-21T03:52:47;11.90;;;3.28;;
76284;SDS011;71676;50.998;7.098;2024-02-21T03:55:14;10.20;;;3.13;;
76284;SDS011;71676;50.998;7.098;2024-02-21T03:57:40;10.18;;;3.58;;
76284;SDS011;71676;50.998;7.098;2024-02-21T04:00:07;12.05;;;3.95;;
76284;SDS011;71676;50.998;7.098;2024-02-21T04:02:37;11.20;;;3.05;;
76284;SDS011;71676;50.998;7.098;2024-02-21T04:05:04;9.98;;;3.35;;
76284;SDS011;71676;50.998;7.098;2024-02-21T04:07:32;10.80;;;3.20;;
76284;SDS011;71676;50.998;7.098;2024-02-21T04:09:59;9.55;;;3.38;;
76284;SDS011;71676;50.998;7.098;2024-02-21T04:12:25;11.38;;;3.38;;
76284;SDS011;71676;50.998;7.098;2024-02-21T04:14:52;10.80;;;3.30;;
76284;SDS011;71676;50.998;7.098;2024-02-21T04:17:19;10.43;;;3.10;;
76284;SDS011;71676;50.998;7.098;2024-02-21T04:19:45;16.33;;;5.13;;
76284;SDS011;71676;50.998;7.098;2024-02-21T04:22:12;13.40;;;3.55;;
76284;SDS011;71676;50.998;7.098;2024-02-21T04:24:40;10.02;;;3.08;;
76284;SDS011;71676;50.998;7.098;2024-02-21T04:27:07;9.60;;;2.70;;
76284;SDS011;71676;50.998;7.098;2024-02-21T04:29:33;10.25;;;3.10;;
76284;SDS011;71676;50.998;7.098;2024-02-21T04:32:01;12.52;;;3.38;;
76284;SDS011;71676;50.998;7.098;2024-02-21T04:34:28;12.70;;;3.08;;
76284;SDS011;71676;50.998;7.098;2024-02-21T04:36:54;12.80;;;3.67;;
76284;SDS011;71676;50.998;7.098;2024-02-21T04:39:21;11.40;;;3.63;;
76284;SDS011;71676;50.998;7.098;2024-02-21T04:41:49;9.88;;;3.33;;
76284;SDS011;71676;50.998;7.098;2024-02-21T04:44:15;10.88;;;3.20;;
76284;SDS011;71676;50.998;7.098;2024-02-21T04:46:42;11.63;;;3.17;;
76284;SDS011;71676;50.998;7.098;2024-02-21T04:49:09;11.15;;;3.88;;
76284;SDS011;71676;50.998;7.098;2024-02-21T04:51:35;11.50;;;3.45;;
76284;SDS011;71676;50.998;7.098;2024-02-21T04:54:02;6.75;;;2.95;;
76284;SDS011;71676;50.998;7.098;2024-02-21T04:56:29;11.65;;;3.42;;
76284;SDS011;71676;50.998;7.098;2024-02-21T04:58:57;9.35;;;3.05;;
76284;SDS011;71676;50.998;7.098;2024-02-21T05:01:23;8.18;;;3.03;;
76284;SDS011;71676;50.998;7.098;2024-02-21T05:03:50;8.57;;;3.80;;
76284;SDS011;71676;50.998;7.098;2024-02-21T05:06:16;10.15;;;3.22;;
76284;SDS011;71676;50.998;7.098;2024-02-21T05:08:44;11.68;;;3.63;;
76284;SDS011;71676;50.998;7.098;2024-02-21T05:11:10;7.80;;;3.03;;
76284;SDS011;71676;50.998;7.098;2024-02-21T05:13:37;10.13;;;3.67;;
76284;SDS011;71676;50.998;7.098;2024-02-21T05:16:05;10.85;;;3.03;;
76284;SDS011;71676;50.998;7.098;2024-02-21T05:18:32;9.77;;;3.28;;
76284;SDS011;71676;50.998;7.098;2024-02-21T05:20:59;12.95;;;3.60;;
76284;SDS011;71676;50.998;7.098;2024-02-21T05:23:25;8.63;;;3.08;;
76284;SDS011;71676;50.998;7.098;2024-02-21T05:25:52;11.15;;;2.95;;
76284;SDS011;71676;50.998;7.098;2024-02-21T05:28:18;9.30;;;2.83;;
76284;SDS011;71676;50.998;7.098;2024-02-21T05:30:45;7.13;;;2.85;;
76284;SDS011;71676;50.998;7.098;2024-02-21T05:33:13;8.55;;;2.97;;
76284;SDS011;71676;50.998;7.098;2024-02-21T05:35:46;13.32;;;3.70;;
76284;SDS011;71676;50.998;7.098;2024-02-21T05:38:12;11.52;;;2.90;;
76284;SDS011;71676;50.998;7.098;2024-02-21T05:40:39;12.40;;;3.15;;
76284;SDS011;71676;50.998;7.098;2024-02-21T05:43:06;9.50;;;3.25;;
76284;SDS011;71676;50.998;7.098;2024-02-21T05:45:33;11.10;;;4.05;;
76284;SDS011;71676;50.998;7.098;2024-02-21T05:48:00;8.10;;;3.15;;
76284;SDS011;71676;50.998;7.098;2024-02-21T05:50:29;13.35;;;3.70;;
76284;SDS011;71676;50.998;7.098;2024-02-21T05:52:56;8.90;;;2.78;;
76284;SDS011;71676;50.998;7.098;2024-02-21T05:55:22;12.30;;;3.20;;
76284;SDS011;71676;50.998;7.098;2024-02-21T05:57:49;11.02;;;3.15;;
76284;SDS011;71676;50.998;7.098;2024-02-21T06:00:16;10.02;;;3.47;;
76284;SDS011;71676;50.998;7.098;2024-02-21T06:02:43;8.65;;;3.08;;
76284;SDS011;71676;50.998;7.098;2024-02-21T06:05:10;8.93;;;3.20;;
76284;SDS011;71676;50.998;7.098;2024-02-21T06:07:38;9.05;;;2.97;;
76284;SDS011;71676;50.998;7.098;2024-02-21T06:10:06;11.63;;;3.25;;
76284;SDS011;71676;50.998;7.098;2024-02-21T06:12:34;8.80;;;3.00;;
76284;SDS011;71676;50.998;7.098;2024-02-21T06:15:00;9.07;;;2.92;;
76284;SDS011;71676;50.998;7.098;2024-02-21T06:17:27;12.38;;;3.25;;
76284;SDS011;71676;50.998;7.098;2024-02-21T06:19:54;8.00;;;2.75;;
76284;SDS011;71676;50.998;7.098;2024-02-21T06:22:21;10.15;;;3.30;;
76284;SDS011;71676;50.998;7.098;2024-02-21T06:24:49;11.73;;;3.00;;
76284;SDS011;71676;50.998;7.098;2024-02-21T06:27:15;11.30;;;3.38;;
76284;SDS011;71676;50.998;7.098;2024-02-21T06:29:42;9.65;;;2.97;;
76284;SDS011;71676;50.998;7.098;2024-02-21T06:32:09;11.90;;;3.25;;
76284;SDS011;71676;50.998;7.098;2024-02-21T06:34:36;9.90;;;3.20;;
76284;SDS011;71676;50.998;7.098;2024-02-21T06:37:02;10.73;;;3.42;;
76284;SDS011;71676;50.998;7.098;2024-02-21T06:39:29;7.40;;;2.80;;
76284;SDS011;71676;50.998;7.098;2024-02-21T06:41:57;8.60;;;2.90;;
76284;SDS011;71676;50.998;7.098;2024-02-21T06:44:24;10.02;;;3.10;;
76284;SDS011;71676;50.998;7.098;2024-02-21T06:46:50;11.35;;;3.10;;
76284;SDS011;71676;50.998;7.098;2024-02-21T06:49:17;9.90;;;3.05;;
76284;SDS011;71676;50.998;7.098;2024-02-21T06:51:44;11.50;;;3.55;;
76284;SDS011;71676;50.998;7.098;2024-02-21T06:54:11;12.15;;;3.10;;
76284;SDS011;71676;50.998;7.098;2024-02-21T06:56:38;8.27;;;2.80;;
76284;SDS011;71676;50.998;7.098;2024-02-21T06:59:07;11.35;;;3.30;;
76284;SDS011;71676;50.998;7.098;2024-02-21T07:01:34;10.43;;;3.20;;
76284;SDS011;71676;50.998;7.098;2024-02-21T07:04:01;8.85;;;3.40;;
76284;SDS011;71676;50.998;7.098;2024-02-21T07:06:27;10.95;;;3.40;;
76284;SDS011;71676;50.998;7.098;2024-02-21T07:08:54;9.52;;;2.90;;
76284;SDS011;71676;50.998;7.098;2024-02-21T07:11:21;9.20;;;3.00;;
76284;SDS011;71676;50.998;7.098;2024-02-21T07:13:48;9.95;;;2.80;;
76284;SDS011;71676;50.998;7.098;2024-02-21T07:16:16;9.00;;;3.03;;
76284;SDS011;71676;50.998;7.098;2024-02-21T07:18:42;9.82;;;3.78;;
76284;SDS011;71676;50.998;7.098;2024-02-21T07:21:09;13.40;;;3.05;;
76284;SDS011;71676;50.998;7.098;2024-02-21T07:23:35;10.30;;;3.60;;
76284;SDS011;71676;50.998;7.098;2024-02-21T07:26:02;9.65;;;2.92;;
76284;SDS011;71676;50.998;7.098;2024-02-21T07:28:30;8.52;;;2.92;;
76284;SDS011;71676;50.998;7.098;2024-02-21T07:30:58;8.40;;;2.60;;
76284;SDS011;71676;50.998;7.098;2024-02-21T07:33:26;9.52;;;2.67;;
76284;SDS011;71676;50.998;7.098;2024-02-21T07:35:53;7.65;;;2.40;;
76284;SDS011;71676;50.998;7.098;2024-02-21T07:38:19;6.03;;;2.20;;
76284;SDS011;71676;50.998;7.098;2024-02-21T07:40:47;9.48;;;2.10;;
76284;SDS011;71676;50.998;7.098;2024-02-21T07:43:14;10.05;;;2.47;;
76284;SDS011;71676;50.998;7.098;2024-02-21T07:45:40;8.95;;;2.80;;
76284;SDS011;71676;50.998;7.098;2024-02-21T07:48:07;7.97;;;2.55;;
76284;SDS011;71676;50.998;7.098;2024-02-21T07:50:35;8.30;;;2.38;;
76284;SDS011;71676;50.998;7.098;2024-02-21T07:53:02;7.25;;;2.72;;
76284;SDS011;71676;50.998;7.098;2024-02-21T07:55:29;11.20;;;2.55;;
76284;SDS011;71676;50.998;7.098;2024-02-21T07:57:56;7.53;;;2.22;;
76284;SDS011;71676;50.998;7.098;2024-02-21T08:00:22;8.32;;;3.00;;
76284;SDS011;71676;50.998;7.098;2024-02-21T08:02:51;6.32;;;2.10;;
76284;SDS011;71676;50.998;7.098;2024-02-21T08:05:17;7.63;;;2.30;;
76284;SDS011;71676;50.998;7.098;2024-02-21T08:07:45;10.07;;;2.33;;
76284;SDS011;71676;50.998;7.098;2024-02-21T08:10:12;6.50;;;2.33;;
76284;SDS011;71676;50.998;7.098;2024-02-21T08:12:38;8.30;;;2.75;;
76284;SDS011;71676;50.998;7.098;2024-02-21T08:15:05;10.80;;;2.58;;
76284;SDS011;71676;50.998;7.098;2024-02-21T08:17:33;6.72;;;2.05;;
76284;SDS011;71676;50.998;7.098;2024-02-21T08:20:00;7.82;;;2.70;;
76284;SDS011;71676;50.998;7.098;2024-02-21T08:22:27;7.15;;;2.63;;
76284;SDS011;71676;50.998;7.098;2024-02-21T08:24:56;11.05;;;2.72;;
76284;SDS011;71676;50.998;7.098;2024-02-21T08:27:22;6.65;;;2.35;;
76284;SDS011;71676;50.998;7.098;2024-02-21T08:29:49;11.82;;;2.78;;
76284;SDS011;71676;50.998;7.098;2024-02-21T08:32:15;12.68;;;3.13;;
76284;SDS011;71676;50.998;7.098;2024-02-21T08:34:42;12.70;;;3.03;;
76284;SDS011;71676;50.998;7.098;2024-02-21T08:37:09;8.10;;;1.92;;
76284;SDS011;71676;50.998;7.098;2024-02-21T08:39:36;10.77;;;2.88;;
76284;SDS011;71676;50.998;7.098;2024-02-21T08:42:05;10.20;;;2.58;;
76284;SDS011;71676;50.998;7.098;2024-02-21T08:44:32;15.70;;;3.22;;
76284;SDS011;71676;50.998;7.098;2024-02-21T08:46:58;13.15;;;2.72;;
76284;SDS011;71676;50.998;7.098;2024-02-21T08:49:28;8.52;;;2.58;;
76284;SDS011;71676;50.998;7.098;2024-02-21T08:51:56;10.75;;;3.40;;
76284;SDS011;71676;50.998;7.098;2024-02-21T08:54:23;7.20;;;2.00;;
76284;SDS011;71676;50.998;7.098;2024-02-21T08:56:49;7.25;;;2.50;;
76284;SDS011;71676;50.998;7.098;2024-02-21T08:59:17;10.65;;;3.03;;
76284;SDS011;71676;50.998;7.098;2024-02-21T09:01:44;8.88;;;2.92;;
76284;SDS011;71676;50.998;7.098;2024-02-21T09:04:10;13.60;;;2.83;;
76284;SDS011;71676;50.998;7.098;2024-02-21T09:06:37;12.23;;;3.40;;
76284;SDS011;71676;50.998;7.098;2024-02-21T09:09:07;10.13;;;2.60;;
76284;SDS011;71676;50.998;7.098;2024-02-21T09:11:33;12.43;;;3.20;;
76284;SDS011;71676;50.998;7.098;2024-02-21T09:14:00;9.57;;;2.83;;
76284;SDS011;71676;50.998;7.098;2024-02-21T09:16:30;10.90;;;3.50;;
76284;SDS011;71676;50.998;7.098;2024-02-21T09:18:57;9.85;;;3.15;;
76284;SDS011;71676;50.998;7.098;2024-02-21T09:21:23;8.85;;;3.22;;
76284;SDS011;71676;50.998;7.098;2024-02-21T09:23:50;10.25;;;3.92;;
76284;SDS011;71676;50.998;7.098;2024-02-21T09:26:17;8.23;;;3.00;;
76284;SDS011;71676;50.998;7.098;2024-02-21T09:28:44;10.93;;;2.53;;
76284;SDS011;71676;50.998;7.098;2024-02-21T09:31:10;8.70;;;2.42;;
76284;SDS011;71676;50.998;7.098;2024-02-21T09:33:38;13.45;;;3.17;;
76284;SDS011;71676;50.998;7.098;2024-02-21T09:36:06;11.15;;;2.83;;
76284;SDS011;71676;50.998;7.098;2024-02-21T09:38:33;4.07;;;1.63;;
76284;SDS011;71676;50.998;7.098;2024-02-21T09:41:00;7.32;;;2.50;;
76284;SDS011;71676;50.998;7.098;2024-02-21T09:43:33;9.57;;;2.85;;
76284;SDS011;71676;50.998;7.098;2024-02-21T09:46:00;8.50;;;2.70;;
76284;SDS011;71676;50.998;7.098;2024-02-21T09:48:30;7.50;;;2.13;;
76284;SDS011;71676;50.998;7.098;2024-02-21T09:51:07;9.57;;;3.05;;
76284;SDS011;71676;50.998;7.098;2024-02-21T09:53:35;14.65;;;3.00;;
76284;SDS011;71676;50.998;7.098;2024-02-21T09:56:05;8.07;;;3.25;;
76284;SDS011;71676;50.998;7.098;2024-02-21T09:58:33;10.00;;;2.85;;
76284;SDS011;71676;50.998;7.098;2024-02-21T10:01:00;10.00;;;2.88;;
76284;SDS011;71676;50.998;7.098;2024-02-21T10:03:27;8.48;;;2.70;;
76284;SDS011;71676;50.998;7.098;2024-02-21T10:05:53;8.77;;;2.47;;
76284;SDS011;71676;50.998;7.098;2024-02-21T10:08:21;10.55;;;2.33;;
76284;SDS011;71676;50.998;7.098;2024-02-21T10:10:48;10.35;;;2.80;;
76284;SDS011;71676;50.998;7.098;2024-02-21T10:13:25;10.55;;;2.50;;
76284;SDS011;71676;50.998;7.098;2024-02-21T10:16:05;10.75;;;2.60;;
76284;SDS011;71676;50.998;7.098;2024-02-21T10:18:32;8.00;;;2.75;;
76284;SDS011;71676;50.998;7.098;2024-02-21T10:20:59;11.32;;;2.35;;
76284;SDS011;71676;50.998;7.098;2024-02-21T10:23:28;9.13;;;2.35;;
76284;SDS011;71676;50.998;7.098;2024-02-21T10:26:04;10.68;;;3.03;;
76284;SDS011;71676;50.998;7.098;2024-02-21T10:28:31;9.07;;;3.00;;
76284;SDS011;71676;50.998;7.098;2024-02-21T10:30:58;8.00;;;2.47;;
76284;SDS011;71676;50.998;7.098;2024-02-21T10:33:24;10.60;;;2.67;;
76284;SDS011;71676;50.998;7.098;2024-02-21T10:35:52;9.77;;;2.83;;
76284;SDS011;71676;50.998;7.098;2024-02-21T10:38:19;10.68;;;2.45;;
76284;SDS011;71676;50.998;7.098;2024-02-21T10:40:47;8.55;;;2.03;;
76284;SDS011;71676;50.998;7.098;2024-02-21T10:43:18;9.75;;;2.65;;
76284;SDS011;71676;50.998;7.098;2024-02-21T10:45:45;8.45;;;2.80;;
76284;SDS011;71676;50.998;7.098;2024-02-21T10:48:14;5.18;;;2.17;;
76284;SDS011;71676;50.998;7.098;2024-02-21T10:50:45;11.05;;;2.67;;
76284;SDS011;71676;50.998;7.098;2024-02-21T10:53:25;6.72;;;2.50;;
76284;SDS011;71676;50.998;7.098;2024-02-21T10:58:25;13.25;;;3.38;;
76284;SDS011;71676;50.998;7.098;2024-02-21T11:00:53;10.40;;;3.05;;
76284;SDS011;71676;50.998;7.098;2024-02-21T11:03:20;9.13;;;2.35;;
76284;SDS011;71676;50.998;7.098;2024-02-21T11:05:47;10.48;;;2.15;;
76284;SDS011;71676;50.998;7.098;2024-02-21T11:08:15;9.88;;;2.47;;
76284;SDS011;71676;50.998;7.098;2024-02-21T11:10:45;7.93;;;2.45;;
76284;SDS011;71676;50.998;7.098;2024-02-21T11:13:13;9.75;;;2.42;;
76284;SDS011;71676;50.998;7.098;2024-02-21T11:15:40;4.63;;;1.92;;
76284;SDS011;71676;50.998;7.098;2024-02-21T11:18:07;7.50;;;1.92;;
76284;SDS011;71676;50.998;7.098;2024-02-21T11:20:34;8.65;;;2.38;;
76284;SDS011;71676;50.998;7.098;2024-02-21T11:23:01;7.97;;;2.22;;
76284;SDS011;71676;50.998;7.098;2024-02-21T11:25:28;9.55;;;2.65;;
76284;SDS011;71676;50.998;7.098;2024-02-21T11:27:59;7.95;;;2.20;;
76284;SDS011;71676;50.998;7.098;2024-02-21T11:30:29;6.00;;;2.13;;
76284;SDS011;71676;50.998;7.098;2024-02-21T11:32:59;7.40;;;2.50;;
76284;SDS011;71676;50.998;7.098;2024-02-21T11:35:30;10.25;;;2.50;;
76284;SDS011;71676;50.998;7.098;2024-02-21T11:38:07;6.97;;;2.33;;
76284;SDS011;71676;50.998;7.098;2024-02-21T11:40:35;8.18;;;2.30;;
76284;SDS011;71676;50.998;7.098;2024-02-21T11:43:04;10.38;;;2.20;;
76284;SDS011;71676;50.998;7.098;2024-02-21T11:45:32;10.05;;;2.78;;
76284;SDS011;71676;50.998;7.098;2024-02-21T11:47:59;9.73;;;2.70;;
76284;SDS011;71676;50.998;7.098;2024-02-21T11:50:28;5.95;;;2.08;;
76284;SDS011;71676;50.998;7.098;2024-02-21T11:52:55;9.55;;;2.20;;
76284;SDS011;71676;50.998;7.098;2024-02-21T11:55:22;7.55;;;2.13;;
76284;SDS011;71676;50.998;7.098;2024-02-21T11:57:49;8.18;;;2.28;;
76284;SDS011;71676;50.998;7.098;2024-02-21T12:00:16;8.30;;;2.50;;
76284;SDS011;71676;50.998;7.098;2024-02-21T12:02:46;7.43;;;2.10;;
76284;SDS011;71676;50.998;7.098;2024-02-21T12:05:15;10.55;;;2.22;;
76284;SDS011;71676;50.998;7.098;2024-02-21T12:07:42;6.93;;;2.20;;
76284;SDS011;71676;50.998;7.098;2024-02-21T12:10:09;6.78;;;2.22;;
76284;SDS011;71676;50.998;7.098;2024-02-21T12:12:37;10.38;;;2.40;;
76284;SDS011;71676;50.998;7.098;2024-02-21T12:15:04;7.18;;;1.98;;
76284;SDS011;71676;50.998;7.098;2024-02-21T12:17:32;7.75;;;2.20;;
76284;SDS011;71676;50.998;7.098;2024-02-21T12:20:02;8.20;;;2.38;;
76284;SDS011;71676;50.998;7.098;2024-02-21T12:22:33;8.05;;;1.88;;
76284;SDS011;71676;50.998;7.098;2024-02-21T12:25:02;6.72;;;2.08;;
76284;SDS011;71676;50.998;7.098;2024-02-21T12:27:32;8.82;;;2.40;;
76284;SDS011;71676;50.998;7.098;2024-02-21T12:29:59;6.97;;;2.40;;
76284;SDS011;71676;50.998;7.098;2024-02-21T12:32:26;7.70;;;2.20;;
76284;SDS011;71676;50.998;7.098;2024-02-21T12:34:52;8.27;;;2.55;;
76284;SDS011;71676;50.998;7.098;2024-02-21T12:37:21;8.20;;;2.30;;
76284;SDS011;71676;50.998;7.098;2024-02-21T12:39:48;8.15;;;2.42;;
76284;SDS011;71676;50.998;7.098;2024-02-21T12:42:15;5.47;;;2.00;;
76284;SDS011;71676;50.998;7.098;2024-02-21T12:44:42;8.02;;;2.30;;
76284;SDS011;71676;50.998;7.098;2024-02-21T12:47:09;6.70;;;1.92;;
76284;SDS011;71676;50.998;7.098;2024-02-21T12:49:35;5.05;;;1.90;;
76284;SDS011;71676;50.998;7.098;2024-02-21T12:52:02;7.07;;;2.22;;
76284;SDS011;71676;50.998;7.098;2024-02-21T12:54:31;8.90;;;2.03;;
76284;SDS011;71676;50.998;7.098;2024-02-21T12:56:57;8.38;;;2.25;;
76284;SDS011;71676;50.998;7.098;2024-02-21T12:59:27;6.10;;;2.50;;
76284;SDS011;71676;50.998;7.098;2024-02-21T13:01:54;8.45;;;2.30;;
76284;SDS011;71676;50.998;7.098;2024-02-21T13:04:21;7.50;;;2.13;;
76284;SDS011;71676;50.998;7.098;2024-02-21T13:06:47;7.43;;;2.35;;
76284;SDS011;71676;50.998;7.098;2024-02-21T13:09:14;7.25;;;2.10;;
76284;SDS011;71676;50.998;7.098;2024-02-21T13:11:43;4.63;;;1.75;;
76284;SDS011;71676;50.998;7.098;2024-02-21T13:14:11;8.60;;;2.00;;
76284;SDS011;71676;50.998;7.098;2024-02-21T13:16:38;7.50;;;2.22;;
76284;SDS011;71676;50.998;7.098;2024-02-21T13:19:05;6.10;;;1.90;;
76284;SDS011;71676;50.998;7.098;2024-02-21T13:21:32;7.50;;;1.98;;
76284;SDS011;71676;50.998;7.098;2024-02-21T13:24:02;5.38;;;1.67;;
76284;SDS011;71676;50.998;7.098;2024-02-21T13:26:29;5.30;;;1.58;;
76284;SDS011;71676;50.998;7.098;2024-02-21T13:28:57;7.70;;;2.35;;
76284;SDS011;71676;50.998;7.098;2024-02-21T13:31:23;6.75;;;1.85;;
76284;SDS011;71676;50.998;7.098;2024-02-21T13:33:50;6.85;;;1.63;;
76284;SDS011;71676;50.998;7.098;2024-02-21T13:36:17;7.10;;;2.08;;
76284;SDS011;71676;50.998;7.098;2024-02-21T13:38:44;6.97;;;2.13;;
76284;SDS011;71676;50.998;7.098;2024-02-21T13:41:11;7.47;;;2.10;;
76284;SDS011;71676;50.998;7.098;2024-02-21T13:43:37;7.97;;;2.20;;
76284;SDS011;71676;50.998;7.098;2024-02-21T13:46:05;5.45;;;1.80;;
76284;SDS011;71676;50.998;7.098;2024-02-21T13:48:34;7.65;;;2.20;;
76284;SDS011;71676;50.998;7.098;2024-02-21T13:51:01;6.40;;;2.30;;
76284;SDS011;71676;50.998;7.098;2024-02-21T13:53:28;5.88;;;2.20;;
76284;SDS011;71676;50.998;7.098;2024-02-21T13:55:55;7.00;;;2.03;;
76284;SDS011;71676;50.998;7.098;2024-02-21T13:58:21;7.50;;;1.67;;
76284;SDS011;71676;50.998;7.098;2024-02-21T14:00:48;8.13;;;2.00;;
76284;SDS011;71676;50.998;7.098;2024-02-21T14:03:17;5.75;;;1.80;;
76284;SDS011;71676;50.998;7.098;2024-02-21T14:05:45;8.95;;;2.45;;
76284;SDS011;71676;50.998;7.098;2024-02-21T14:08:13;5.32;;;2.05;;
76284;SDS011;71676;50.998;7.098;2024-02-21T14:10:40;4.55;;;1.83;;
76284;SDS011;71676;50.998;7.098;2024-02-21T14:13:06;8.45;;;2.58;;
76284;SDS011;71676;50.998;7.098;2024-02-21T14:15:33;6.82;;;2.30;;
76284;SDS011;71676;50.998;7.098;2024-02-21T14:18:01;8.93;;;2.20;;
76284;SDS011;71676;50.998;7.098;2024-02-21T14:20:32;7.30;;;2.17;;
76284;SDS011;71676;50.998;7.098;2024-02-21T14:22:58;9.45;;;2.58;;
76284;SDS011;71676;50.998;7.098;2024-02-21T14:25:25;6.85;;;2.00;;
76284;SDS011;71676;50.998;7.098;2024-02-21T14:27:52;7.22;;;2.20;;
76284;SDS011;71676;50.998;7.098;2024-02-21T14:30:19;5.70;;;2.38;;
76284;SDS011;71676;50.998;7.098;2024-02-21T14:32:45;7.60;;;1.70;;
76284;SDS011;71676;50.998;7.098;2024-02-21T14:35:12;7.50;;;2.15;;
76284;SDS011;71676;50.998;7.098;2024-02-21T14:37:41;8.07;;;2.15;;
76284;SDS011;71676;50.998;7.098;2024-02-21T14:40:08;9.40;;;2.67;;
76284;SDS011;71676;50.998;7.098;2024-02-21T14:42:36;4.95;;;1.83;;
76284;SDS011;71676;50.998;7.098;2024-02-21T14:45:03;5.30;;;1.58;;